Time;durP1;ratioP1;P1;durP2;ratioP2;P2;SDS_P1;SDS_P2;PMS_P1;PMS_P2;Temp;Humidity;BMP_temperature;BMP_pressure;BME280_temperature;BME280_humidity;BME280_pressure;Samples;Min_cycle;Max_cycle;Signal;HPM_P1;HPM_P2
2022/06/17 00:00:26;;;;;;;;;;;;;;;;;;1045410;28;4379;-51
2022/06/17 00:01:05;;;;;;;;;;;;;;;;;;1048245;28;4257;-50
2022/06/17 00:01:35;;;;;;;;;;;;;;;;;;1043782;28;3246;-48
2022/06/17 00:02:06;;;;;;;;;;;;;;;;;;1044264;28;3896;-51
2022/06/17 00:02:36;;;;;;;;;;;;;;;;;;1043584;28;2756;-47
2022/06/17 00:03:07;;;;;;;;;;;;;;;;;;1044362;28;4167;-49
2022/06/17 00:03:37;;;;;;;;;;;;;;;;;;1046211;28;2640;-50
2022/06/17 00:04:07;;;;;;;;;;;;;;;;;;1045695;28;3897;-49
2022/06/17 00:04:37;;;;;;;;;;;;;;;;;;1046720;28;3776;-51
2022/06/17 00:05:08;;;;;;;;;;;;;;;;;;1044121;28;3896;-49
2022/06/17 00:05:39;;;;;;;;;;;;;;;;;;1044361;28;1947;-52
2022/06/17 00:06:10;;;;;;;;;;;;;;;;;;1043502;28;5550;-49
2022/06/17 00:06:42;;;;;;;;;;;;;;;;;;1044616;28;1308;-50
2022/06/17 00:07:14;;;;;;;;;;;;;;;;;;1047701;28;3892;-50
2022/06/17 00:07:44;;;;;;;;;;;;;;;;;;1046555;28;3869;-49
2022/06/17 00:08:17;;;;;;;;;;;;;;;;;;1043082;28;3869;-48
2022/06/17 00:08:49;;;;;;;;;;;;;;;;;;1044016;28;1762;-50
2022/06/17 00:09:20;;;;;;;;;;;;;;;;;;1041496;28;3720;-53
2022/06/17 00:09:51;;;;;;;;;;;;;;;;;;1043737;28;3883;-54
2022/06/17 00:10:23;;;;;;;;;;;;;;;;;;1047443;28;1673;-52
2022/06/17 00:10:54;;;;;;;;;;;;;;;;;;1047881;28;3887;-50
2022/06/17 00:11:30;;;;;;;;;;;;;;;;;;1048321;28;4211;-49
2022/06/17 00:12:01;;;;;;;;;;;;;;;;;;1047670;28;3786;-50
2022/06/17 00:12:31;;;;;;;;;;;;;;;;;;1047980;28;3910;-48
2022/06/17 00:13:01;;;;;;;;;;;;;;;;;;1048000;28;4211;-49
2022/06/17 00:13:31;;;;;;;;;;;;;;;;;;1048045;28;1594;-48
2022/06/17 00:14:02;;;;;;;;;;;;;;;;;;1042930;28;3877;-50
2022/06/17 00:15:11;;;;;;;;;;;;;;;;;;1043107;28;2941;-49
2022/06/17 00:15:31;;;;;;;;;;;;;;;;;;1042257;28;4109;-49
2022/06/17 00:16:02;;;;;;;;;;;;;;;;;;1046782;28;3863;-48
2022/06/17 00:16:32;;;;;;;;;;;;;;;;;;1047415;28;3142;-47
2022/06/17 00:17:07;;;;;;;;;;;;;;;;;;1047477;28;3902;-50
2022/06/17 00:17:37;;;;;;;;;;;;;;;;;;1047829;28;3207;-51
2022/06/17 00:18:08;;;;;;;;;;;;;;;;;;1047013;28;3798;-48
2022/06/17 00:18:39;;;;;;;;;;;;;;;;;;1047576;28;3781;-48
2022/06/17 00:19:09;;;;;;;;;;;;;;;;;;1042055;28;4295;-50
2022/06/17 00:19:39;;;;;;;;;;;;;;;;;;1043602;28;3782;-51
2022/06/17 00:20:12;;;;;;;;;;;;;;;;;;1041301;28;3817;-48
2022/06/17 00:20:43;;;;;;;;;;;;;;;;;;1039552;28;3781;-50
2022/06/17 00:21:22;;;;;;;;;;;;;;;;;;1042823;28;3888;-48
2022/06/17 00:21:53;;;;;;;;;;;;;;;;;;1042213;28;4334;-49
2022/06/17 00:22:25;;;;;;;;;;;;;;;;;;1044310;28;2870;-49
2022/06/17 00:22:55;;;;;;;;;;;;;;;;;;1048186;28;3985;-51
2022/06/17 00:23:27;;;;;;;;;;;;;;;;;;1046225;28;3205;-48
2022/06/17 00:23:58;;;;;;;;;;;;;;;;;;1047387;28;3846;-48
2022/06/17 00:24:32;;;;;;;;;;;;;;;;;;1047695;28;2483;-52
2022/06/17 00:25:05;;;;;;;;;;;;;;;;;;1046243;28;3879;-48
2022/06/17 00:25:37;;;;;;;;;;;;;;;;;;1048944;28;1236;-50
2022/06/17 00:26:09;;;;;;;;;;;;;;;;;;1045331;28;4223;-49
2022/06/17 00:26:39;;;;;;;;;;;;;;;;;;1049370;28;1540;-48
2022/06/17 00:27:10;;;;;;;;;;;;;;;;;;1042737;28;3947;-50
2022/06/17 00:27:40;;;;;;;;;;;;;;;;;;1043763;28;1582;-50
2022/06/17 00:28:11;;;;;;;;;;;;;;;;;;1042942;28;4245;-50
2022/06/17 00:28:42;;;;;;;;;;;;;;;;;;1042702;28;3065;-49
2022/06/17 00:29:13;;;;;;;;;;;;;;;;;;1046146;28;4392;-53
2022/06/17 00:29:43;;;;;;;;;;;;;;;;;;1046567;28;4150;-49
2022/06/17 00:30:15;;;;;;;;;;;;;;;;;;1046114;28;3769;-52
2022/06/17 00:30:46;;;;;;;;;;;;;;;;;;1046602;28;2890;-51
2022/06/17 00:31:17;;;;;;;;;;;;;;;;;;1047186;28;3894;-51
2022/06/17 00:31:47;;;;;;;;;;;;;;;;;;1047690;28;2377;-49
2022/06/17 00:32:17;;;;;;;;;;;;;;;;;;1047358;28;3843;-49
2022/06/17 00:32:50;;;;;;;;;;;;;;;;;;1048097;28;2789;-51
2022/06/17 00:33:21;;;;;;;;;;;;;;;;;;1047505;28;3843;-53
2022/06/17 00:33:51;;;;;;;;;;;;;;;;;;1042614;28;4874;-52
2022/06/17 00:34:23;;;;;;;;;;;;;;;;;;1042384;28;3001;-47
2022/06/17 00:34:53;;;;;;;;;;;;;;;;;;1042524;28;3881;-49
2022/06/17 00:35:26;;;;;;;;;;;;;;;;;;1040633;28;3159;-47
2022/06/17 00:35:56;;;;;;;;;;;;;;;;;;1045659;28;3941;-51
2022/06/17 00:36:27;;;;;;;;;;;;;;;;;;1047430;28;3069;-49
2022/06/17 00:36:59;;;;;;;;;;;;;;;;;;1048724;28;5688;-50
2022/06/17 00:37:29;;;;;;;;;;;;;;;;;;1048315;28;1622;-48
2022/06/17 00:38:00;;;;;;;;;;;;;;;;;;1048412;28;3810;-47
2022/06/17 00:38:32;;;;;;;;;;;;;;;;;;1047264;28;3629;-52
2022/06/17 00:39:09;;;;;;;;;;;;;;;;;;1046147;28;3882;-53
2022/06/17 00:39:40;;;;;;;;;;;;;;;;;;1047592;28;2965;-49
2022/06/17 00:40:12;;;;;;;;;;;;;;;;;;1047346;28;3733;-48
2022/06/17 00:40:43;;;;;;;;;;;;;;;;;;1047956;28;1992;-48
2022/06/17 00:41:13;;;;;;;;;;;;;;;;;;1046938;28;3765;-51
2022/06/17 00:41:45;;;;;;;;;;;;;;;;;;1047894;28;1863;-49
2022/06/17 00:42:18;;;;;;;;;;;;;;;;;;1044255;28;3881;-50
2022/06/17 00:42:55;;;;;;;;;;;;;;;;;;1042691;28;3394;-52
2022/06/17 00:43:36;;;;;;;;;;;;;;;;;;1036570;28;3683;-49
2022/06/17 00:44:33;;;;;;;;;;;;;;;;;;1037970;28;4384;-48
2022/06/17 00:45:07;;;;;;;;;;;;;;;;;;1040086;28;4264;-50
2022/06/17 00:45:39;;;;;;;;;;;;;;;;;;1041085;28;2446;-54
2022/06/17 00:46:24;;;;;;;;;;;;;;;;;;1040062;28;3755;-51
2022/06/17 00:46:54;;;;;;;;;;;;;;;;;;1039792;28;4315;-49
2022/06/17 00:47:43;;;;;;;;;;;;;;;;;;1039726;28;3865;-48
2022/06/17 00:48:16;;;;;;;;;;;;;;;;;;1039373;28;3936;-47
2022/06/17 00:48:52;;;;;;;;;;;;;;;;;;1040730;28;3741;-51
2022/06/17 00:49:32;;;;;;;;;;;;;;;;;;1040015;28;3720;-52
2022/06/17 00:50:13;;;;;;;;;;;;;;;;;;1038347;28;3998;-51
2022/06/17 00:50:50;;;;;;;;;;;;;;;;;;1041015;28;1564;-49
2022/06/17 00:51:22;;;;;;;;;;;;;;;;;;1041543;28;3673;-50
2022/06/17 00:51:58;;;;;;;;;;;;;;;;;;1040679;28;3809;-49
2022/06/17 00:52:31;;;;;;;;;;;;;;;;;;1041325;28;1471;-51
2022/06/17 00:53:04;;;;;;;;;;;;;;;;;;1040172;28;3822;-50
2022/06/17 00:53:40;;;;;;;;;;;;;;;;;;1041249;28;2969;-50
2022/06/17 00:54:22;;;;;;;;;;;;;;;;;;1039578;28;4249;-49
2022/06/17 00:55:01;;;;;;;;;;;;;;;;;;1040594;28;4213;-49
2022/06/17 00:55:34;;;;;;;;;;;;;;;;;;1039177;28;4878;-49
2022/06/17 00:56:19;;;;;;;;;;;;;;;;;;1041099;28;3867;-49
2022/06/17 00:56:50;;;;;;;;;;;;;;;;;;1037219;28;4336;-52
2022/06/17 00:57:23;;;;;;;;;;;;;;;;;;1033588;28;2707;-52
2022/06/17 00:57:53;;;;;;;;;;;;;;;;;;1037352;28;3800;-49
2022/06/17 00:58:25;;;;;;;;;;;;;;;;;;1037669;28;1649;-49
2022/06/17 00:59:01;;;;;;;;;;;;;;;;;;1041533;28;4068;-48
2022/06/17 00:59:33;;;;;;;;;;;;;;;;;;1041441;28;2491;-48
2022/06/17 01:00:20;;;;;;;;;;;;;;;;;;1040147;28;4273;-48
2022/06/17 01:00:54;;;;;;;;;;;;;;;;;;1040783;28;3847;-47
2022/06/17 01:01:25;;;;;;;;;;;;;;;;;;1043754;28;3577;-51
2022/06/17 01:01:58;;;;;;;;;;;;;;;;;;1041128;28;3879;-49
2022/06/17 01:02:32;;;;;;;;;;;;;;;;;;1039851;28;2677;-48
2022/06/17 01:03:05;;;;;;;;;;;;;;;;;;1039509;28;4255;-49
2022/06/17 01:03:37;;;;;;;;;;;;;;;;;;1041701;28;2789;-51
2022/06/17 01:04:10;;;;;;;;;;;;;;;;;;1040745;28;4080;-51
2022/06/17 01:04:42;;;;;;;;;;;;;;;;;;1040886;28;2420;-50
2022/06/17 01:05:13;;;;;;;;;;;;;;;;;;1039612;28;4297;-49
2022/06/17 01:05:49;;;;;;;;;;;;;;;;;;1041254;28;3628;-50
2022/06/17 01:06:20;;;;;;;;;;;;;;;;;;1040251;28;3732;-50
2022/06/17 01:07:11;;;;;;;;;;;;;;;;;;1041868;28;3889;-51
2022/06/17 01:07:43;;;;;;;;;;;;;;;;;;1042182;28;1680;-52
2022/06/17 01:09:57;;;;;;;;;;;;;;;;;;1041503;28;3755;-50
2022/06/17 01:10:08;;;;;;;;;;;;;;;;;;1039977;28;3873;-49
2022/06/17 01:10:41;;;;;;;;;;;;;;;;;;1041274;28;2453;-50
2022/06/17 01:11:13;;;;;;;;;;;;;;;;;;1040618;28;4165;-49
2022/06/17 01:11:43;;;;;;;;;;;;;;;;;;1042742;28;1307;-49
2022/06/17 01:12:16;;;;;;;;;;;;;;;;;;1040172;28;3912;-51
2022/06/17 01:13:02;;;;;;;;;;;;;;;;;;1042571;28;1537;-49
2022/06/17 01:13:33;;;;;;;;;;;;;;;;;;1041483;28;3826;-49
2022/06/17 01:14:05;;;;;;;;;;;;;;;;;;1041372;28;3944;-51
2022/06/17 01:14:37;;;;;;;;;;;;;;;;;;1041531;28;3303;-50
2022/06/17 01:15:08;;;;;;;;;;;;;;;;;;1040425;28;3820;-48
2022/06/17 01:15:40;;;;;;;;;;;;;;;;;;1039750;28;3869;-50
2022/06/17 01:16:10;;;;;;;;;;;;;;;;;;1038907;28;3820;-47
2022/06/17 01:16:41;;;;;;;;;;;;;;;;;;1040877;28;4423;-51
2022/06/17 01:17:13;;;;;;;;;;;;;;;;;;1040995;28;4238;-50
2022/06/17 01:17:43;;;;;;;;;;;;;;;;;;1040753;28;3636;-50
2022/06/17 01:18:14;;;;;;;;;;;;;;;;;;1041484;28;4490;-51
2022/06/17 01:18:45;;;;;;;;;;;;;;;;;;1040350;28;2363;-50
2022/06/17 01:19:32;;;;;;;;;;;;;;;;;;1040454;28;3836;-51
2022/06/17 01:20:03;;;;;;;;;;;;;;;;;;1041564;28;4228;-49
2022/06/17 01:20:35;;;;;;;;;;;;;;;;;;1041519;28;1373;-52
2022/06/17 01:21:10;;;;;;;;;;;;;;;;;;1043891;28;3850;-49
2022/06/17 01:21:49;;;;;;;;;;;;;;;;;;1044842;28;3947;-50
2022/06/17 01:22:22;;;;;;;;;;;;;;;;;;1045309;28;3687;-55
2022/06/17 01:22:53;;;;;;;;;;;;;;;;;;1042920;28;3909;-51
2022/06/17 01:23:24;;;;;;;;;;;;;;;;;;1040988;28;3751;-53
2022/06/17 01:23:55;;;;;;;;;;;;;;;;;;1040750;28;3865;-52
2022/06/17 01:24:25;;;;;;;;;;;;;;;;;;1041247;28;3038;-47
2022/06/17 01:25:00;;;;;;;;;;;;;;;;;;1041089;28;4262;-50
2022/06/17 01:25:36;;;;;;;;;;;;;;;;;;1040546;28;2371;-47
2022/06/17 01:26:06;;;;;;;;;;;;;;;;;;1040857;28;4267;-50
2022/06/17 01:26:37;;;;;;;;;;;;;;;;;;1041431;28;4218;-50
2022/06/17 01:27:07;;;;;;;;;;;;;;;;;;1040491;28;4325;-49
2022/06/17 01:27:43;;;;;;;;;;;;;;;;;;1040969;28;3189;-51
2022/06/17 01:28:15;;;;;;;;;;;;;;;;;;1041000;28;4359;-49
2022/06/17 01:28:45;;;;;;;;;;;;;;;;;;1041440;28;2799;-47
2022/06/17 01:29:15;;;;;;;;;;;;;;;;;;1037511;28;3840;-51
2022/06/17 01:29:46;;;;;;;;;;;;;;;;;;1040526;28;3733;-50
2022/06/17 01:30:18;;;;;;;;;;;;;;;;;;1040220;28;3870;-49
2022/06/17 01:30:51;;;;;;;;;;;;;;;;;;1040158;28;3857;-48
2022/06/17 01:31:22;;;;;;;;;;;;;;;;;;1041702;28;3725;-48
2022/06/17 01:31:54;;;;;;;;;;;;;;;;;;1040837;28;4275;-50
2022/06/17 01:32:27;;;;;;;;;;;;;;;;;;1040679;28;2418;-50
2022/06/17 01:33:00;;;;;;;;;;;;;;;;;;1040111;28;3864;-49
2022/06/17 01:33:35;;;;;;;;;;;;;;;;;;1040658;28;2984;-50
2022/06/17 01:34:05;;;;;;;;;;;;;;;;;;1040320;28;3814;-51
2022/06/17 01:34:35;;;;;;;;;;;;;;;;;;1039826;28;3991;-49
2022/06/17 01:35:06;;;;;;;;;;;;;;;;;;1040579;28;4054;-49
2022/06/17 01:35:50;;;;;;;;;;;;;;;;;;1041242;28;1561;-52
2022/06/17 01:36:23;;;;;;;;;;;;;;;;;;1041475;28;3893;-50
2022/06/17 01:36:53;;;;;;;;;;;;;;;;;;1041796;28;3866;-48
2022/06/17 01:37:24;;;;;;;;;;;;;;;;;;1041828;28;1601;-49
2022/06/17 01:37:54;;;;;;;;;;;;;;;;;;1039925;28;3909;-53
2022/06/17 01:38:25;;;;;;;;;;;;;;;;;;1041371;28;1659;-50
2022/06/17 01:38:58;;;;;;;;;;;;;;;;;;1041893;28;3923;-49
2022/06/17 01:39:28;;;;;;;;;;;;;;;;;;1041889;28;3117;-50
2022/06/17 01:39:59;;;;;;;;;;;;;;;;;;1039743;28;3944;-48
2022/06/17 01:40:29;;;;;;;;;;;;;;;;;;1041476;28;2597;-49
2022/06/17 01:41:00;;;;;;;;;;;;;;;;;;1041019;28;3868;-50
2022/06/17 01:41:32;;;;;;;;;;;;;;;;;;1041397;28;2151;-50
2022/06/17 01:42:02;;;;;;;;;;;;;;;;;;1039628;28;3887;-48
2022/06/17 01:42:35;;;;;;;;;;;;;;;;;;1041154;28;1705;-48
2022/06/17 01:43:13;;;;;;;;;;;;;;;;;;1041744;28;3893;-52
2022/06/17 01:43:53;;;;;;;;;;;;;;;;;;1041059;28;1704;-48
2022/06/17 01:44:33;;;;;;;;;;;;;;;;;;1039546;28;4068;-47
2022/06/17 01:45:04;;;;;;;;;;;;;;;;;;1038591;28;4551;-50
2022/06/17 01:45:37;;;;;;;;;;;;;;;;;;1039211;28;2573;-51
2022/06/17 01:46:19;;;;;;;;;;;;;;;;;;1038200;28;4217;-51
2022/06/17 01:46:54;;;;;;;;;;;;;;;;;;1039854;28;3844;-51
2022/06/17 01:47:25;;;;;;;;;;;;;;;;;;1040329;28;3671;-50
2022/06/17 01:47:56;;;;;;;;;;;;;;;;;;1038958;28;4789;-50
2022/06/17 01:48:27;;;;;;;;;;;;;;;;;;1039054;28;3839;-53
2022/06/17 01:49:00;;;;;;;;;;;;;;;;;;1040660;28;5179;-49
2022/06/17 01:49:33;;;;;;;;;;;;;;;;;;1038884;28;4012;-49
2022/06/17 01:50:07;;;;;;;;;;;;;;;;;;1039197;28;3906;-51
2022/06/17 01:50:39;;;;;;;;;;;;;;;;;;1041355;28;1390;-49
2022/06/17 01:51:10;;;;;;;;;;;;;;;;;;1038357;28;3874;-50
2022/06/17 01:51:42;;;;;;;;;;;;;;;;;;1039934;28;1875;-49
2022/06/17 01:52:14;;;;;;;;;;;;;;;;;;1039520;28;3775;-50
2022/06/17 01:52:52;;;;;;;;;;;;;;;;;;1039481;28;1843;-51
2022/06/17 01:53:27;;;;;;;;;;;;;;;;;;1037557;28;4226;-48
2022/06/17 01:53:58;;;;;;;;;;;;;;;;;;1039457;28;3907;-49
2022/06/17 01:54:31;;;;;;;;;;;;;;;;;;1040767;28;1635;-49
2022/06/17 01:55:28;;;;;;;;;;;;;;;;;;1039849;28;3786;-49
2022/06/17 01:56:02;;;;;;;;;;;;;;;;;;1040044;28;4265;-52
2022/06/17 01:56:34;;;;;;;;;;;;;;;;;;1041171;28;1298;-50
2022/06/17 01:57:07;;;;;;;;;;;;;;;;;;1038973;28;3862;-50
2022/06/17 01:57:43;;;;;;;;;;;;;;;;;;1039894;28;3212;-48
2022/06/17 01:58:19;;;;;;;;;;;;;;;;;;1040053;28;4790;-49
2022/06/17 01:58:54;;;;;;;;;;;;;;;;;;1040967;28;4244;-50
2022/06/17 01:59:28;;;;;;;;;;;;;;;;;;1041119;28;1430;-48
2022/06/17 02:00:01;;;;;;;;;;;;;;;;;;1037270;28;4844;-49
2022/06/17 02:00:31;;;;;;;;;;;;;;;;;;1039964;28;3038;-47
2022/06/17 02:01:04;;;;;;;;;;;;;;;;;;1038548;28;4822;-48
2022/06/17 02:01:36;;;;;;;;;;;;;;;;;;1039568;28;3817;-53
2022/06/17 02:02:08;;;;;;;;;;;;;;;;;;1039593;28;4203;-48
2022/06/17 02:02:40;;;;;;;;;;;;;;;;;;1040511;28;3747;-50
2022/06/17 02:03:13;;;;;;;;;;;;;;;;;;1039024;28;3846;-49
2022/06/17 02:03:47;;;;;;;;;;;;;;;;;;1040837;28;1260;-51
2022/06/17 02:04:20;;;;;;;;;;;;;;;;;;1040246;28;3754;-52
2022/06/17 02:04:54;;;;;;;;;;;;;;;;;;1036373;28;4366;-49
2022/06/17 02:05:26;;;;;;;;;;;;;;;;;;1036759;28;3458;-49
2022/06/17 02:06:03;;;;;;;;;;;;;;;;;;1029884;28;3965;-50
2022/06/17 02:06:38;;;;;;;;;;;;;;;;;;1035773;28;1667;-52
2022/06/17 02:07:21;;;;;;;;;;;;;;;;;;1036326;28;4290;-48
2022/06/17 02:07:54;;;;;;;;;;;;;;;;;;1038943;28;4061;-49
2022/06/17 02:08:24;;;;;;;;;;;;;;;;;;1040838;28;2858;-51
2022/06/17 02:08:54;;;;;;;;;;;;;;;;;;1038542;28;3759;-48
2022/06/17 02:09:25;;;;;;;;;;;;;;;;;;1040734;28;1115;-49
2022/06/17 02:09:55;;;;;;;;;;;;;;;;;;1038161;28;3795;-48
2022/06/17 02:10:27;;;;;;;;;;;;;;;;;;1040342;28;2414;-48
2022/06/17 02:10:58;;;;;;;;;;;;;;;;;;1039806;28;3780;-47
2022/06/17 02:11:28;;;;;;;;;;;;;;;;;;1040013;28;3756;-47
2022/06/17 02:11:59;;;;;;;;;;;;;;;;;;1039008;28;3855;-51
2022/06/17 02:12:30;;;;;;;;;;;;;;;;;;1040746;28;4334;-50
2022/06/17 02:13:01;;;;;;;;;;;;;;;;;;1037708;28;3824;-48
2022/06/17 02:13:32;;;;;;;;;;;;;;;;;;1041167;28;2706;-48
2022/06/17 02:14:06;;;;;;;;;;;;;;;;;;1039616;28;3870;-50
2022/06/17 02:14:37;;;;;;;;;;;;;;;;;;1039748;28;2941;-50
2022/06/17 02:15:08;;;;;;;;;;;;;;;;;;1040367;28;3789;-52
2022/06/17 02:15:38;;;;;;;;;;;;;;;;;;1040776;28;3840;-50
2022/06/17 02:16:10;;;;;;;;;;;;;;;;;;1041032;28;4235;-48
2022/06/17 02:16:43;;;;;;;;;;;;;;;;;;1040923;28;2385;-47
2022/06/17 02:17:14;;;;;;;;;;;;;;;;;;1039243;28;4290;-49
2022/06/17 02:17:45;;;;;;;;;;;;;;;;;;1039147;28;2356;-48
2022/06/17 02:18:17;;;;;;;;;;;;;;;;;;1038854;28;3896;-51
2022/06/17 02:18:47;;;;;;;;;;;;;;;;;;1040156;28;3524;-48
2022/06/17 02:19:18;;;;;;;;;;;;;;;;;;1038091;28;3883;-51
2022/06/17 02:19:49;;;;;;;;;;;;;;;;;;1041404;28;1182;-50
2022/06/17 02:20:19;;;;;;;;;;;;;;;;;;1038381;28;3794;-49
2022/06/17 02:20:51;;;;;;;;;;;;;;;;;;1039160;28;3803;-51
2022/06/17 02:21:27;;;;;;;;;;;;;;;;;;1038987;28;1770;-49
2022/06/17 02:22:00;;;;;;;;;;;;;;;;;;1039252;28;3847;-51
2022/06/17 02:22:32;;;;;;;;;;;;;;;;;;1039585;28;1612;-49
2022/06/17 02:23:03;;;;;;;;;;;;;;;;;;1040433;28;3863;-48
2022/06/17 02:23:34;;;;;;;;;;;;;;;;;;1040781;28;1689;-49
2022/06/17 02:24:04;;;;;;;;;;;;;;;;;;1039373;28;4085;-50
2022/06/17 02:24:35;;;;;;;;;;;;;;;;;;1041262;28;2424;-52
2022/06/17 02:25:11;;;;;;;;;;;;;;;;;;1037630;28;4053;-50
2022/06/17 02:25:44;;;;;;;;;;;;;;;;;;1039565;28;4198;-50
2022/06/17 02:26:14;;;;;;;;;;;;;;;;;;1035929;28;3804;-48
2022/06/17 02:26:45;;;;;;;;;;;;;;;;;;1037718;28;1833;-52
2022/06/17 02:27:16;;;;;;;;;;;;;;;;;;1040796;28;4196;-53
2022/06/17 02:27:50;;;;;;;;;;;;;;;;;;1040136;28;2995;-51
2022/06/17 02:28:21;;;;;;;;;;;;;;;;;;1040110;28;3829;-48
2022/06/17 02:28:51;;;;;;;;;;;;;;;;;;1039101;28;3791;-50
2022/06/17 02:29:22;;;;;;;;;;;;;;;;;;1040406;28;2944;-50
2022/06/17 02:29:53;;;;;;;;;;;;;;;;;;1039334;28;3797;-51
2022/06/17 02:30:24;;;;;;;;;;;;;;;;;;1040824;28;3192;-52
2022/06/17 02:30:55;;;;;;;;;;;;;;;;;;1039425;28;3758;-51
2022/06/17 02:31:25;;;;;;;;;;;;;;;;;;1040504;28;1724;-49
2022/06/17 02:31:55;;;;;;;;;;;;;;;;;;1038741;28;3902;-48
2022/06/17 02:32:26;;;;;;;;;;;;;;;;;;1040202;28;1487;-49
2022/06/17 02:33:01;;;;;;;;;;;;;;;;;;1038590;28;3886;-51
2022/06/17 02:33:32;;;;;;;;;;;;;;;;;;1040217;28;1837;-51
2022/06/17 02:34:06;;;;;;;;;;;;;;;;;;1040668;28;3868;-52
2022/06/17 02:34:47;;;;;;;;;;;;;;;;;;1040481;28;1705;-52
2022/06/17 02:35:29;;;;;;;;;;;;;;;;;;1039069;28;3858;-49
2022/06/17 02:36:03;;;;;;;;;;;;;;;;;;1039360;28;3962;-48
2022/06/17 02:36:40;;;;;;;;;;;;;;;;;;1040712;28;1765;-49
2022/06/17 02:37:11;;;;;;;;;;;;;;;;;;1039975;28;3831;-50
2022/06/17 02:37:42;;;;;;;;;;;;;;;;;;1037873;28;4410;-47
2022/06/17 02:38:15;;;;;;;;;;;;;;;;;;1039311;28;4399;-47
2022/06/17 02:38:45;;;;;;;;;;;;;;;;;;1041463;28;2769;-52
2022/06/17 02:39:15;;;;;;;;;;;;;;;;;;1040858;28;3777;-49
2022/06/17 02:39:48;;;;;;;;;;;;;;;;;;1041913;28;1644;-47
2022/06/17 02:40:28;;;;;;;;;;;;;;;;;;1041358;28;3753;-49
2022/06/17 02:41:01;;;;;;;;;;;;;;;;;;1039342;28;3966;-49
2022/06/17 02:41:32;;;;;;;;;;;;;;;;;;1040301;28;3165;-51
2022/06/17 02:42:02;;;;;;;;;;;;;;;;;;1040282;28;3828;-48
2022/06/17 02:42:36;;;;;;;;;;;;;;;;;;1042356;28;1704;-51
2022/06/17 02:43:17;;;;;;;;;;;;;;;;;;1042926;28;4424;-49
2022/06/17 02:43:51;;;;;;;;;;;;;;;;;;1044590;28;3601;-46
2022/06/17 02:44:27;;;;;;;;;;;;;;;;;;1044028;28;3663;-48
2022/06/17 02:44:58;;;;;;;;;;;;;;;;;;1041428;28;3876;-49
2022/06/17 02:45:31;;;;;;;;;;;;;;;;;;1043918;28;2909;-48
2022/06/17 02:46:05;;;;;;;;;;;;;;;;;;1046167;28;4253;-50
2022/06/17 02:46:38;;;;;;;;;;;;;;;;;;1046943;28;3895;-48
2022/06/17 02:47:09;;;;;;;;;;;;;;;;;;1050211;28;3763;-51
2022/06/17 02:47:40;;;;;;;;;;;;;;;;;;1050526;28;3682;-48
2022/06/17 02:48:22;;;;;;;;;;;;;;;;;;1042762;28;4079;-48
2022/06/17 02:48:54;;;;;;;;;;;;;;;;;;1044349;28;3760;-52
2022/06/17 02:49:26;;;;;;;;;;;;;;;;;;1044060;28;2173;-48
2022/06/17 02:49:57;;;;;;;;;;;;;;;;;;1044034;28;4384;-48
2022/06/17 02:50:33;;;;;;;;;;;;;;;;;;1044068;28;2530;-51
2022/06/17 02:51:04;;;;;;;;;;;;;;;;;;1042829;28;3849;-48
2022/06/17 02:51:37;;;;;;;;;;;;;;;;;;1043055;28;1327;-46
2022/06/17 02:52:11;;;;;;;;;;;;;;;;;;1042659;28;3906;-49
2022/06/17 02:52:42;;;;;;;;;;;;;;;;;;1044114;28;2655;-48
2022/06/17 02:53:12;;;;;;;;;;;;;;;;;;1041858;28;4195;-51
2022/06/17 02:53:43;;;;;;;;;;;;;;;;;;1043938;28;1810;-50
2022/06/17 02:54:15;;;;;;;;;;;;;;;;;;1044143;28;3793;-49
2022/06/17 02:54:51;;;;;;;;;;;;;;;;;;1044439;28;1486;-52
2022/06/17 02:55:29;;;;;;;;;;;;;;;;;;1043029;28;3643;-51
2022/06/17 02:56:04;;;;;;;;;;;;;;;;;;1043008;28;3788;-47
2022/06/17 02:56:35;;;;;;;;;;;;;;;;;;1044219;28;1581;-49
2022/06/17 02:57:07;;;;;;;;;;;;;;;;;;1042933;28;3937;-50
2022/06/17 02:57:39;;;;;;;;;;;;;;;;;;1044036;28;1657;-48
2022/06/17 02:58:28;;;;;;;;;;;;;;;;;;1050999;28;3815;-51
2022/06/17 02:59:05;;;;;;;;;;;;;;;;;;1052349;28;3792;-51
2022/06/17 02:59:42;;;;;;;;;;;;;;;;;;1052171;28;1259;-47
2022/06/17 03:00:17;;;;;;;;;;;;;;;;;;1044441;28;3873;-51
2022/06/17 03:00:50;;;;;;;;;;;;;;;;;;1045325;28;1584;-51
2022/06/17 03:01:25;;;;;;;;;;;;;;;;;;1041574;28;3647;-47
2022/06/17 03:02:01;;;;;;;;;;;;;;;;;;1040291;28;3819;-50
2022/06/17 03:02:45;;;;;;;;;;;;;;;;;;1042635;28;3764;-50
2022/06/17 03:03:17;;;;;;;;;;;;;;;;;;1044315;28;4791;-46
2022/06/17 03:03:48;;;;;;;;;;;;;;;;;;1042553;28;2511;-47
2022/06/17 03:04:20;;;;;;;;;;;;;;;;;;1044547;28;3777;-49
2022/06/17 03:04:51;;;;;;;;;;;;;;;;;;1043274;28;3815;-47
2022/06/17 03:05:24;;;;;;;;;;;;;;;;;;1044861;28;2332;-51
2022/06/17 03:05:54;;;;;;;;;;;;;;;;;;1041272;28;3818;-51
2022/06/17 03:06:32;;;;;;;;;;;;;;;;;;1043796;28;3675;-48
2022/06/17 03:07:08;;;;;;;;;;;;;;;;;;1042138;28;4286;-47
2022/06/17 03:07:39;;;;;;;;;;;;;;;;;;1043185;28;3844;-48
2022/06/17 03:08:23;;;;;;;;;;;;;;;;;;1042268;28;3879;-49
2022/06/17 03:08:54;;;;;;;;;;;;;;;;;;1050335;28;3864;-48
2022/06/17 03:09:25;;;;;;;;;;;;;;;;;;1052838;28;3958;-49
2022/06/17 03:09:56;;;;;;;;;;;;;;;;;;1050597;28;4039;-49
2022/06/17 03:10:31;;;;;;;;;;;;;;;;;;1052903;28;1552;-49
2022/06/17 03:11:02;;;;;;;;;;;;;;;;;;1044039;28;4421;-50
2022/06/17 03:11:32;;;;;;;;;;;;;;;;;;1045718;28;1150;-50
2022/06/17 03:12:02;;;;;;;;;;;;;;;;;;1043844;28;3871;-50
2022/06/17 03:12:32;;;;;;;;;;;;;;;;;;1044330;28;2371;-50
2022/06/17 03:13:09;;;;;;;;;;;;;;;;;;1042371;28;4038;-48
2022/06/17 03:13:42;;;;;;;;;;;;;;;;;;1044963;28;1320;-49
2022/06/17 03:14:12;;;;;;;;;;;;;;;;;;1043373;28;3872;-49
2022/06/17 03:14:57;;;;;;;;;;;;;;;;;;1045064;28;1448;-47
2022/06/17 03:15:28;;;;;;;;;;;;;;;;;;1043742;28;3884;-47
2022/06/17 03:16:00;;;;;;;;;;;;;;;;;;1043548;28;3871;-49
2022/06/17 03:16:32;;;;;;;;;;;;;;;;;;1052296;28;2431;-48
2022/06/17 03:17:05;;;;;;;;;;;;;;;;;;1047391;28;3787;-48
2022/06/17 03:17:38;;;;;;;;;;;;;;;;;;1046519;28;3794;-51
2022/06/17 03:18:09;;;;;;;;;;;;;;;;;;1040348;28;3990;-52
2022/06/17 03:18:40;;;;;;;;;;;;;;;;;;1041858;28;1452;-48
2022/06/17 03:19:11;;;;;;;;;;;;;;;;;;1037501;28;4547;-48
2022/06/17 03:19:48;;;;;;;;;;;;;;;;;;1038989;28;3627;-50
2022/06/17 03:20:23;;;;;;;;;;;;;;;;;;1038820;28;3792;-52
2022/06/17 03:20:54;;;;;;;;;;;;;;;;;;1042906;28;3766;-48
2022/06/17 03:21:25;;;;;;;;;;;;;;;;;;1044484;28;1618;-50
2022/06/17 03:22:02;;;;;;;;;;;;;;;;;;1044434;28;3778;-51
2022/06/17 03:22:33;;;;;;;;;;;;;;;;;;1043594;28;1679;-49
2022/06/17 03:23:06;;;;;;;;;;;;;;;;;;1043876;28;3854;-47
2022/06/17 03:23:42;;;;;;;;;;;;;;;;;;1043542;28;2009;-50
2022/06/17 03:24:16;;;;;;;;;;;;;;;;;;1042756;28;3958;-52
2022/06/17 03:24:50;;;;;;;;;;;;;;;;;;1043028;28;3869;-50
2022/06/17 03:25:26;;;;;;;;;;;;;;;;;;1051511;28;3784;-49
2022/06/17 03:26:00;;;;;;;;;;;;;;;;;;1052648;28;4179;-48
2022/06/17 03:26:37;;;;;;;;;;;;;;;;;;1051671;28;2751;-51
2022/06/17 03:27:10;;;;;;;;;;;;;;;;;;1048343;28;3763;-48
2022/06/17 03:27:51;;;;;;;;;;;;;;;;;;1043284;28;2388;-51
2022/06/17 03:28:34;;;;;;;;;;;;;;;;;;1043591;28;3731;-50
2022/06/17 03:29:06;;;;;;;;;;;;;;;;;;1042878;28;3890;-48
2022/06/17 03:29:39;;;;;;;;;;;;;;;;;;1043289;28;1412;-52
2022/06/17 03:30:11;;;;;;;;;;;;;;;;;;1043523;28;3795;-47
2022/06/17 03:30:47;;;;;;;;;;;;;;;;;;1046115;28;2703;-50
2022/06/17 03:31:29;;;;;;;;;;;;;;;;;;1045433;28;3929;-49
2022/06/17 03:32:05;;;;;;;;;;;;;;;;;;1046999;28;4037;-49
2022/06/17 03:32:37;;;;;;;;;;;;;;;;;;1044746;28;1624;-51
2022/06/17 03:33:16;;;;;;;;;;;;;;;;;;1044569;28;3770;-50
2022/06/17 03:33:50;;;;;;;;;;;;;;;;;;1042816;28;1694;-51
2022/06/17 03:34:23;;;;;;;;;;;;;;;;;;1042404;28;3908;-49
2022/06/17 03:34:54;;;;;;;;;;;;;;;;;;1040763;28;4000;-48
2022/06/17 03:35:31;;;;;;;;;;;;;;;;;;1044357;28;1596;-52
2022/06/17 03:36:04;;;;;;;;;;;;;;;;;;1042468;28;3891;-48
2022/06/17 03:36:37;;;;;;;;;;;;;;;;;;1053849;28;1375;-52
2022/06/17 03:37:11;;;;;;;;;;;;;;;;;;1051684;28;3751;-51
2022/06/17 03:37:46;;;;;;;;;;;;;;;;;;1051772;28;1921;-50
2022/06/17 03:38:31;;;;;;;;;;;;;;;;;;1047426;28;3835;-49
2022/06/17 03:39:04;;;;;;;;;;;;;;;;;;1043454;28;3901;-50
2022/06/17 03:39:37;;;;;;;;;;;;;;;;;;1041950;28;4600;-51
2022/06/17 03:40:07;;;;;;;;;;;;;;;;;;1040864;28;3934;-48
2022/06/17 03:40:40;;;;;;;;;;;;;;;;;;1039991;28;5094;-47
2022/06/17 03:41:23;;;;;;;;;;;;;;;;;;1043008;28;3846;-50
2022/06/17 03:42:05;;;;;;;;;;;;;;;;;;1043903;28;4439;-49
2022/06/17 03:42:54;;;;;;;;;;;;;;;;;;1044330;28;1768;-51
2022/06/17 03:43:56;;;;;;;;;;;;;;;;;;1038508;28;3805;-49
2022/06/17 03:44:31;;;;;;;;;;;;;;;;;;1039740;28;3672;-50
2022/06/17 03:45:25;;;;;;;;;;;;;;;;;;1039238;28;3821;-48
2022/06/17 03:45:59;;;;;;;;;;;;;;;;;;1035245;28;3838;-49
2022/06/17 03:46:32;;;;;;;;;;;;;;;;;;1036451;28;2974;-51
2022/06/17 03:47:05;;;;;;;;;;;;;;;;;;1036043;28;3944;-49
2022/06/17 03:47:49;;;;;;;;;;;;;;;;;;1033429;28;1622;-50
2022/06/17 03:48:40;;;;;;;;;;;;;;;;;;1037036;28;3757;-49
2022/06/17 03:49:16;;;;;;;;;;;;;;;;;;1036289;28;3863;-47
2022/06/17 03:49:54;;;;;;;;;;;;;;;;;;1038390;28;2939;-48
2022/06/17 03:50:30;;;;;;;;;;;;;;;;;;1036665;28;4636;-50
2022/06/17 03:51:01;;;;;;;;;;;;;;;;;;1039074;28;4307;-48
2022/06/17 03:51:34;;;;;;;;;;;;;;;;;;1038314;28;4381;-52
2022/06/17 03:52:10;;;;;;;;;;;;;;;;;;1039449;28;3771;-47
2022/06/17 03:52:43;;;;;;;;;;;;;;;;;;1039891;28;1484;-49
2022/06/17 03:53:22;;;;;;;;;;;;;;;;;;1040029;28;3809;-48
2022/06/17 03:53:53;;;;;;;;;;;;;;;;;;1039030;28;4273;-51
2022/06/17 03:54:23;;;;;;;;;;;;;;;;;;1036957;28;4329;-51
2022/06/17 03:54:53;;;;;;;;;;;;;;;;;;1040296;28;3925;-46